createdAt,value
2022-07-25T00:01:08.713Z,27.55
2022-07-25T00:03:40.555Z,27.48
2022-07-25T00:06:17.808Z,27.41
2022-07-25T00:08:49.423Z,27.32
2022-07-25T00:11:19.388Z,27.27
2022-07-25T00:13:49.851Z,27.23
2022-07-25T00:16:20.397Z,27.19
2022-07-25T00:18:50.560Z,27.24
2022-07-25T00:21:20.526Z,27.23
2022-07-25T00:23:51.942Z,27.21
2022-07-25T00:26:22.009Z,27.26
2022-07-25T00:28:52.248Z,27.32
2022-07-25T00:31:22.311Z,27.34
2022-07-25T00:33:52.301Z,27.34
2022-07-25T00:36:22.530Z,27.36
2022-07-25T00:38:53.926Z,27.40
2022-07-25T00:41:24.050Z,27.41
2022-07-25T00:43:54.129Z,27.36
2022-07-25T00:46:24.532Z,27.36
2022-07-25T00:48:54.509Z,27.36
2022-07-25T00:51:24.639Z,27.36
2022-07-25T00:53:57.040Z,27.32
2022-07-25T00:56:27.623Z,27.31
2022-07-25T00:58:57.762Z,27.33
2022-07-25T01:01:27.875Z,27.33
2022-07-25T01:03:58.114Z,27.41
2022-07-25T01:06:28.606Z,27.49
2022-07-25T01:09:00.307Z,27.55
2022-07-25T01:11:30.271Z,27.51
2022-07-25T01:14:00.776Z,27.54
2022-07-25T01:16:31.196Z,27.54
2022-07-25T01:19:02.334Z,27.55
2022-07-25T01:21:33.693Z,27.48
2022-07-25T01:24:03.983Z,27.44
2022-07-25T01:26:34.345Z,27.38
2022-07-25T01:29:04.470Z,27.37
2022-07-25T01:31:34.487Z,27.25
2022-07-25T01:34:04.779Z,27.13
2022-07-25T01:36:36.636Z,27.06
2022-07-25T01:39:06.698Z,26.99
2022-07-25T01:41:36.685Z,26.99
2022-07-25T01:44:07.163Z,26.97
2022-07-25T01:46:38.514Z,26.93
2022-07-25T01:49:08.625Z,26.80
2022-07-25T01:51:40.005Z,26.77
2022-07-25T01:54:10.486Z,26.66
2022-07-25T01:56:47.089Z,26.74
2022-07-25T01:59:18.458Z,26.67
2022-07-25T02:01:48.570Z,26.74
2022-07-25T02:04:18.593Z,26.56
2022-07-25T02:06:50.122Z,26.57
2022-07-25T02:09:19.964Z,26.38
2022-07-25T02:11:50.593Z,26.22
2022-07-25T02:14:20.888Z,26.34
2022-07-25T02:16:51.379Z,26.17
2022-07-25T02:19:21.331Z,26.16
2022-07-25T02:21:52.834Z,26.10
2022-07-25T02:24:22.822Z,26.09
2022-07-25T02:26:53.013Z,26.17
2022-07-25T02:29:23.079Z,26.15
2022-07-25T02:31:53.197Z,26.06
2022-07-25T02:34:23.163Z,26.13
2022-07-25T02:36:54.530Z,26.09
2022-07-25T02:39:25.438Z,26.05
2022-07-25T02:41:55.387Z,25.87
2022-07-25T02:44:25.563Z,25.97
2022-07-25T02:46:55.497Z,26.04
2022-07-25T02:49:25.468Z,25.90
2022-07-25T02:51:57.676Z,25.89
2022-07-25T02:54:27.803Z,25.88
2022-07-25T02:56:57.802Z,25.85
2022-07-25T02:59:32.386Z,25.99
2022-07-25T03:02:02.430Z,26.02
2022-07-25T03:04:32.422Z,26.13
2022-07-25T03:07:03.840Z,26.16
2022-07-25T03:09:33.780Z,26.18
2022-07-25T03:12:04.694Z,26.05
2022-07-25T03:14:35.181Z,25.96
2022-07-25T03:17:05.410Z,26.01
2022-07-25T03:19:35.518Z,25.94
2022-07-25T03:22:06.813Z,25.90
2022-07-25T03:24:36.816Z,25.93
2022-07-25T03:27:06.955Z,25.90
2022-07-25T03:29:37.035Z,25.92
2022-07-25T03:32:08.219Z,25.95
2022-07-25T03:34:38.765Z,25.98
2022-07-25T03:37:10.077Z,25.92
2022-07-25T03:39:40.954Z,25.77
2022-07-25T03:42:11.815Z,25.81
2022-07-25T03:44:41.707Z,25.86
2022-07-25T03:47:11.672Z,25.82
2022-07-25T03:49:50.672Z,25.80
2022-07-25T03:52:21.959Z,25.82
2022-07-25T03:54:51.875Z,25.81
2022-07-25T03:57:21.858Z,25.78
2022-07-25T03:59:51.713Z,25.71
2022-07-25T04:02:21.666Z,25.71
2022-07-25T04:04:51.753Z,25.75
2022-07-25T04:07:23.244Z,25.84
2022-07-25T04:09:53.180Z,25.80
2022-07-25T04:12:23.911Z,25.81
2022-07-25T04:14:54.275Z,25.85
2022-07-25T04:17:25.296Z,25.89
2022-07-25T04:19:55.772Z,25.87
2022-07-25T04:22:28.097Z,25.93
2022-07-25T04:24:57.992Z,25.87
2022-07-25T04:27:28.076Z,25.79
2022-07-25T04:29:58.977Z,25.76
2022-07-25T04:32:29.055Z,25.75
2022-07-25T04:34:58.925Z,25.86
2022-07-25T04:37:30.611Z,25.97
2022-07-25T04:40:00.441Z,25.94
2022-07-25T04:42:30.582Z,25.86
2022-07-25T04:45:00.524Z,25.88
2022-07-25T04:47:30.578Z,25.93
2022-07-25T04:50:01.286Z,25.93
2022-07-25T04:52:32.601Z,25.93
2022-07-25T04:55:04.280Z,25.98
2022-07-25T04:57:34.498Z,26.01
2022-07-25T05:00:05.350Z,26.01
2022-07-25T05:02:36.346Z,26.05
2022-07-25T05:05:07.167Z,26.13
2022-07-25T05:07:38.711Z,26.09
2022-07-25T05:10:09.291Z,26.13
2022-07-25T05:12:39.686Z,26.14
2022-07-25T05:15:11.267Z,26.15
2022-07-25T05:17:41.308Z,26.10
2022-07-25T05:20:13.779Z,26.15
2022-07-25T05:22:45.225Z,26.18
2022-07-25T05:25:15.216Z,26.18
2022-07-25T05:27:45.562Z,26.22
2022-07-25T05:30:16.368Z,26.20
2022-07-25T05:32:46.303Z,26.22
2022-07-25T05:35:17.430Z,26.27
2022-07-25T05:37:49.822Z,26.33
2022-07-25T05:40:19.847Z,26.40
2022-07-25T05:42:49.787Z,26.45
2022-07-25T05:45:19.735Z,26.51
2022-07-25T05:47:49.577Z,26.50
2022-07-25T05:50:19.656Z,26.47
2022-07-25T05:52:50.963Z,26.50
2022-07-25T05:55:21.106Z,26.62
2022-07-25T05:57:51.090Z,26.64
2022-07-25T06:00:21.179Z,26.58
2022-07-25T06:02:51.191Z,26.66
2022-07-25T06:05:22.451Z,26.61
2022-07-25T06:07:53.905Z,26.53
2022-07-25T06:10:24.063Z,26.77
2022-07-25T06:12:54.283Z,26.90
2022-07-25T06:15:26.601Z,27.04
2022-07-25T06:17:57.673Z,26.81
2022-07-25T06:20:29.664Z,26.98
2022-07-25T06:23:03.904Z,27.10
2022-07-25T06:25:34.411Z,26.97
2022-07-25T06:28:04.873Z,27.11
2022-07-25T06:30:34.883Z,27.20
2022-07-25T06:33:04.938Z,27.23
2022-07-25T06:35:36.801Z,27.31
2022-07-25T06:38:10.337Z,27.17
2022-07-25T06:40:40.007Z,27.33
2022-07-25T06:43:09.887Z,27.42
2022-07-25T06:45:39.831Z,27.36
2022-07-25T06:48:11.088Z,27.55
2022-07-25T06:50:41.291Z,27.58
2022-07-25T06:53:12.680Z,27.59
2022-07-25T06:55:42.895Z,27.49
2022-07-25T06:58:13.042Z,27.56
2022-07-25T07:00:43.230Z,27.56
2022-07-25T07:03:13.532Z,27.62
2022-07-25T07:05:43.422Z,27.67
2022-07-25T07:08:15.264Z,27.81
2022-07-25T07:10:45.191Z,27.89
2022-07-25T07:13:23.874Z,28.06
2022-07-25T07:15:55.905Z,28.25
2022-07-25T07:18:25.988Z,28.24
2022-07-25T07:20:55.857Z,28.04
2022-07-25T07:23:27.390Z,28.19
2022-07-25T07:25:59.131Z,28.37
2022-07-25T07:28:29.308Z,28.49
2022-07-25T07:31:15.836Z,28.45
2022-07-25T07:33:47.000Z,28.49
2022-07-25T07:36:16.919Z,28.66
2022-07-25T07:38:50.178Z,28.59
2022-07-25T07:41:20.490Z,28.63
2022-07-25T07:43:50.614Z,28.75
2022-07-25T07:46:20.670Z,28.87
2022-07-25T07:48:50.669Z,28.98
2022-07-25T07:51:21.140Z,28.98
2022-07-25T07:54:09.875Z,29.04
2022-07-25T07:56:39.796Z,28.96
2022-07-25T07:59:10.547Z,29.06
2022-07-25T08:01:40.828Z,29.04
2022-07-25T08:04:11.454Z,29.04
2022-07-25T08:06:43.247Z,28.95
2022-07-25T08:09:14.719Z,28.96
2022-07-25T08:11:45.387Z,29.10
2022-07-25T08:14:15.905Z,29.13
2022-07-25T08:16:45.924Z,28.91
2022-07-25T08:19:16.037Z,28.98
2022-07-25T08:21:47.144Z,29.13
2022-07-25T08:24:18.873Z,29.13
2022-07-25T08:26:48.807Z,29.11
2022-07-25T08:29:20.668Z,29.19
2022-07-25T08:31:52.911Z,29.04
2022-07-25T08:34:22.937Z,29.31
2022-07-25T08:36:52.789Z,29.38
2022-07-25T08:39:24.267Z,29.47
2022-07-25T08:41:54.401Z,29.26
2022-07-25T08:44:31.068Z,29.39
2022-07-25T08:47:01.965Z,29.54
2022-07-25T08:49:32.064Z,29.52
2022-07-25T08:52:03.837Z,29.43
2022-07-25T08:54:35.200Z,29.48
2022-07-25T08:57:05.544Z,29.37
2022-07-25T08:59:35.513Z,29.51
2022-07-25T09:02:08.956Z,29.48
2022-07-25T09:04:38.839Z,29.53
2022-07-25T09:07:08.931Z,29.47
2022-07-25T09:09:40.578Z,29.46
2022-07-25T09:12:11.074Z,29.46
2022-07-25T09:14:45.460Z,29.67
2022-07-25T09:17:21.938Z,29.60
2022-07-25T09:19:54.715Z,29.73
2022-07-25T09:22:24.890Z,29.81
2022-07-25T09:24:56.457Z,29.86
2022-07-25T09:27:26.638Z,29.84
2022-07-25T09:29:57.083Z,29.95
2022-07-25T09:32:26.999Z,29.91
2022-07-25T09:34:56.893Z,29.99
2022-07-25T09:37:27.964Z,29.94
2022-07-25T09:39:59.538Z,29.99
2022-07-25T09:42:32.342Z,30.09
2022-07-25T09:45:11.502Z,30.04
2022-07-25T09:47:52.678Z,30.13
2022-07-25T09:50:24.368Z,30.13
2022-07-25T09:52:56.664Z,30.20
2022-07-25T09:55:28.106Z,30.25
2022-07-25T09:57:58.436Z,30.17
2022-07-25T10:00:30.328Z,30.09
2022-07-25T10:03:13.057Z,30.23
2022-07-25T10:05:52.308Z,30.32
2022-07-25T10:08:23.571Z,30.23
2022-07-25T10:10:55.299Z,30.33
2022-07-25T10:13:35.292Z,30.41
2022-07-25T10:16:16.978Z,30.28
2022-07-25T10:18:52.499Z,30.45
2022-07-25T10:21:27.258Z,30.38
2022-07-25T10:24:04.135Z,30.58
2022-07-25T10:26:39.850Z,30.69
2022-07-25T10:29:11.824Z,30.79
2022-07-25T10:31:50.467Z,30.72
2022-07-25T10:34:31.880Z,30.30
2022-07-25T10:37:11.481Z,30.32
2022-07-25T10:39:42.779Z,30.43
2022-07-25T10:42:16.816Z,30.55
2022-07-25T10:44:49.187Z,30.56
2022-07-25T10:47:19.398Z,30.64
2022-07-25T10:50:13.900Z,30.64
2022-07-25T10:52:43.476Z,30.56
2022-07-25T10:55:23.863Z,30.53
2022-07-25T10:58:17.185Z,30.54
2022-07-25T11:00:47.989Z,30.53
2022-07-25T11:03:18.710Z,30.50
2022-07-25T11:05:49.247Z,30.49
2022-07-25T11:08:22.181Z,30.58
2022-07-25T11:10:53.864Z,30.70
2022-07-25T11:13:26.066Z,30.97
2022-07-25T11:15:58.966Z,30.95
2022-07-25T11:18:36.592Z,30.93
2022-07-25T11:21:08.567Z,30.80
2022-07-25T11:23:38.553Z,30.84
2022-07-25T11:26:10.361Z,30.93
2022-07-25T11:28:45.826Z,31.02
2022-07-25T11:31:17.219Z,31.11
2022-07-25T11:33:50.525Z,31.01
2022-07-25T11:36:21.389Z,31.14
2022-07-25T11:38:51.745Z,31.09
2022-07-25T11:41:29.799Z,30.86
2022-07-25T11:44:01.230Z,30.94
2022-07-25T11:46:31.434Z,30.87
2022-07-25T11:49:08.671Z,31.00
2022-07-25T11:51:39.957Z,31.15
2022-07-25T11:54:11.810Z,31.20
2022-07-25T11:56:43.440Z,31.16
2022-07-25T11:59:15.290Z,31.20
2022-07-25T12:01:45.491Z,31.15
2022-07-25T12:04:18.295Z,31.22
2022-07-25T12:06:50.041Z,31.21
2022-07-25T12:09:22.297Z,31.35
2022-07-25T12:12:03.683Z,31.23
2022-07-25T12:14:44.909Z,31.30
2022-07-25T12:17:15.072Z,31.35
2022-07-25T12:19:47.151Z,31.35
2022-07-25T12:22:17.214Z,31.34
2022-07-25T12:24:47.163Z,31.26
2022-07-25T12:27:17.080Z,31.16
2022-07-25T12:29:49.333Z,31.24
2022-07-25T12:32:19.250Z,31.24
2022-07-25T12:34:49.295Z,31.31
2022-07-25T12:37:21.733Z,31.23
2022-07-25T12:39:51.787Z,31.29
2022-07-25T12:42:21.937Z,31.21
2022-07-25T12:44:53.340Z,31.38
2022-07-25T12:47:23.367Z,31.34
2022-07-25T12:49:53.281Z,31.31
2022-07-25T12:52:23.589Z,31.25
2022-07-25T12:54:53.871Z,31.34
2022-07-25T12:57:24.681Z,31.28
2022-07-25T12:59:56.533Z,31.25
2022-07-25T13:02:26.822Z,31.28
2022-07-25T13:04:56.949Z,31.22
2022-07-25T13:07:27.075Z,31.15
2022-07-25T13:09:57.391Z,31.13
2022-07-25T13:12:28.070Z,31.13
2022-07-25T13:14:59.782Z,31.12
2022-07-25T13:17:29.830Z,31.14
2022-07-25T13:20:00.188Z,31.12
2022-07-25T13:22:30.278Z,31.12
2022-07-25T13:25:00.295Z,31.10
2022-07-25T13:27:30.211Z,31.11
2022-07-25T13:30:01.557Z,31.10
2022-07-25T13:32:31.884Z,31.03
2022-07-25T13:35:02.391Z,31.12
2022-07-25T13:37:33.488Z,31.15
2022-07-25T13:40:03.577Z,31.15
2022-07-25T13:42:33.436Z,31.13
2022-07-25T13:45:04.992Z,31.09
2022-07-25T13:47:35.900Z,31.15
2022-07-25T13:50:06.610Z,31.12
2022-07-25T13:52:37.783Z,31.08
2022-07-25T13:55:10.437Z,31.02
2022-07-25T13:57:40.417Z,30.96
2022-07-25T14:00:13.548Z,31.03
2022-07-25T14:02:44.340Z,31.08
2022-07-25T14:05:14.784Z,31.04
2022-07-25T14:07:44.759Z,31.07
2022-07-25T14:10:14.812Z,30.77
2022-07-25T14:12:45.238Z,30.76
2022-07-25T14:15:17.707Z,30.88
2022-07-25T14:17:48.107Z,30.85
2022-07-25T14:20:18.065Z,31.00
2022-07-25T14:22:48.365Z,30.91
2022-07-25T14:25:18.330Z,30.88
2022-07-25T14:27:49.150Z,30.76
2022-07-25T14:30:20.523Z,31.01
2022-07-25T14:32:50.532Z,31.16
2022-07-25T14:35:20.921Z,31.20
2022-07-25T14:37:50.996Z,31.15
2022-07-25T14:40:20.974Z,30.90
2022-07-25T14:42:50.992Z,30.95
2022-07-25T14:45:23.064Z,30.98
2022-07-25T14:47:54.068Z,30.85
2022-07-25T14:50:24.456Z,30.77
2022-07-25T14:52:54.613Z,30.70
2022-07-25T14:55:25.965Z,30.52
2022-07-25T14:57:58.094Z,30.54
2022-07-25T15:00:30.006Z,30.58
2022-07-25T15:03:00.289Z,30.46
2022-07-25T15:05:30.810Z,30.43
2022-07-25T15:08:01.161Z,30.34
2022-07-25T15:10:31.285Z,30.34
2022-07-25T15:13:29.370Z,30.34
2022-07-25T15:15:54.673Z,30.26
2022-07-25T15:18:24.927Z,30.28
2022-07-25T15:21:05.386Z,30.30
2022-07-25T15:23:35.493Z,30.38
2022-07-25T15:26:06.368Z,30.16
2022-07-25T15:28:39.086Z,30.19
2022-07-25T15:31:10.702Z,30.17
2022-07-25T15:33:41.041Z,30.50
2022-07-25T15:36:11.540Z,30.50
2022-07-25T15:38:41.831Z,30.48
2022-07-25T15:41:12.312Z,30.47
2022-07-25T15:43:42.415Z,30.43
2022-07-25T15:46:18.005Z,30.36
2022-07-25T15:48:48.439Z,30.35
2022-07-25T15:51:19.001Z,30.32
2022-07-25T15:53:49.177Z,30.33
2022-07-25T15:56:19.488Z,30.38
2022-07-25T15:58:50.420Z,30.33
2022-07-25T16:01:22.273Z,30.27
2022-07-25T16:03:52.662Z,30.25
2022-07-25T16:06:23.714Z,30.23
2022-07-25T16:08:54.248Z,30.14
2022-07-25T16:11:24.417Z,30.04
2022-07-25T16:13:55.110Z,29.94
2022-07-25T16:16:27.249Z,29.95
2022-07-25T16:18:58.982Z,29.96
2022-07-25T16:21:29.145Z,29.98
2022-07-25T16:23:59.448Z,29.95
2022-07-25T16:26:29.561Z,29.92
2022-07-25T16:29:02.685Z,29.95
2022-07-25T16:31:35.066Z,29.84
2022-07-25T16:34:05.608Z,29.87
2022-07-25T16:36:36.882Z,29.91
2022-07-25T16:39:07.268Z,29.82
2022-07-25T16:41:37.797Z,29.89
2022-07-25T16:44:07.982Z,29.91
2022-07-25T16:46:39.654Z,29.85
2022-07-25T16:49:10.575Z,29.75
2022-07-25T16:51:41.088Z,29.75
2022-07-25T16:54:11.573Z,29.61
2022-07-25T16:56:42.455Z,29.62
2022-07-25T16:59:12.726Z,29.51
2022-07-25T17:01:46.658Z,29.45
2022-07-25T17:04:16.887Z,29.53
2022-07-25T17:06:49.350Z,29.53
2022-07-25T17:09:19.643Z,29.47
2022-07-25T17:11:50.306Z,29.38
2022-07-25T17:14:22.267Z,29.27
2022-07-25T17:16:55.406Z,29.27
2022-07-25T17:19:25.788Z,29.23
2022-07-25T17:21:56.074Z,29.25
2022-07-25T17:24:26.476Z,29.22
2022-07-25T17:26:56.888Z,29.23
2022-07-25T17:29:27.685Z,29.11
2022-07-25T17:31:59.710Z,29.15
2022-07-25T17:34:30.066Z,29.09
2022-07-25T17:37:03.231Z,28.99
2022-07-25T17:39:34.470Z,28.98
2022-07-25T17:42:07.489Z,28.94
2022-07-25T17:44:37.727Z,28.89
2022-07-25T17:47:09.325Z,28.89
2022-07-25T17:49:39.594Z,28.82
2022-07-25T17:52:12.442Z,28.75
2022-07-25T17:54:42.538Z,28.75
2022-07-25T17:57:12.763Z,28.75
2022-07-25T17:59:42.988Z,28.70
2022-07-25T18:02:14.546Z,28.69
2022-07-25T18:04:45.142Z,28.66
2022-07-25T18:07:15.423Z,28.62
2022-07-25T18:09:45.475Z,28.63
2022-07-25T18:12:15.723Z,28.58
2022-07-25T18:14:49.222Z,28.57
2022-07-25T18:17:21.986Z,28.58
2022-07-25T18:19:52.170Z,28.44
2022-07-25T18:22:22.342Z,28.43
2022-07-25T18:24:52.560Z,28.38
2022-07-25T18:27:22.939Z,28.38
2022-07-25T18:29:53.081Z,28.38
2022-07-25T18:32:24.548Z,28.38
2022-07-25T18:34:54.732Z,28.38
2022-07-25T18:37:25.292Z,28.35
2022-07-25T18:39:55.498Z,28.32
2022-07-25T18:42:29.743Z,28.32
2022-07-25T18:45:00.387Z,28.33
2022-07-25T18:47:33.941Z,28.28
2022-07-25T18:50:04.266Z,28.26
2022-07-25T18:52:36.472Z,28.15
2022-07-25T18:55:09.123Z,28.08
2022-07-25T18:57:39.548Z,28.11
2022-07-25T19:00:12.034Z,28.12
2022-07-25T19:02:43.607Z,28.08
2022-07-25T19:05:13.957Z,28.06
2022-07-25T19:07:45.041Z,28.01
2022-07-25T19:10:15.628Z,28.01
2022-07-25T19:12:46.571Z,28.01
2022-07-25T19:15:18.352Z,27.94
2022-07-25T19:17:49.965Z,27.94
2022-07-25T19:20:22.576Z,27.93
2022-07-25T19:22:53.040Z,27.92
2022-07-25T19:25:23.544Z,27.93
2022-07-25T19:27:54.167Z,27.93
2022-07-25T19:30:24.293Z,27.86
2022-07-25T19:32:55.824Z,27.84
2022-07-25T19:35:26.545Z,27.72
2022-07-25T19:37:56.807Z,27.65
2022-07-25T19:40:26.883Z,27.73
2022-07-25T19:42:57.001Z,27.70
2022-07-25T19:45:27.046Z,27.66
2022-07-25T19:47:58.589Z,27.69
2022-07-25T19:50:29.077Z,27.65
2022-07-25T19:52:59.191Z,27.62
2022-07-25T19:55:29.399Z,27.67
2022-07-25T19:57:59.583Z,27.66
2022-07-25T20:00:29.919Z,27.64
2022-07-25T20:03:01.637Z,27.54
2022-07-25T20:05:32.256Z,27.47
2022-07-25T20:08:02.713Z,27.49
2022-07-25T20:10:32.891Z,27.52
2022-07-25T20:13:03.804Z,27.50
2022-07-25T20:15:34.504Z,27.48
2022-07-25T20:18:06.034Z,27.48
2022-07-25T20:20:36.341Z,27.48
2022-07-25T20:23:06.387Z,27.45
2022-07-25T20:25:37.648Z,27.41
2022-07-25T20:28:08.163Z,27.34
2022-07-25T20:30:38.367Z,27.35
2022-07-25T20:33:10.167Z,27.30
2022-07-25T20:35:40.337Z,27.27
2022-07-25T20:38:11.013Z,27.22
2022-07-25T20:40:46.273Z,27.21
2022-07-25T20:43:16.646Z,27.22
2022-07-25T20:45:48.005Z,26.96
2022-07-25T20:48:19.618Z,26.90
2022-07-25T20:50:49.999Z,26.88
2022-07-25T20:53:20.383Z,26.98
2022-07-25T20:55:50.879Z,27.04
2022-07-25T20:58:21.444Z,27.04
2022-07-25T21:00:51.568Z,26.97
2022-07-25T21:03:25.758Z,26.98
2022-07-25T21:05:55.980Z,27.01
2022-07-25T21:08:26.213Z,27.05
2022-07-25T21:10:56.347Z,27.05
2022-07-25T21:13:26.922Z,27.04
2022-07-25T21:16:01.376Z,26.99
2022-07-25T21:18:32.881Z,26.97
2022-07-25T21:21:03.248Z,26.91
2022-07-25T21:23:33.558Z,26.88
2022-07-25T21:26:04.756Z,26.88
2022-07-25T21:28:35.109Z,26.85
2022-07-25T21:31:05.181Z,26.71
2022-07-25T21:33:36.638Z,26.79
2022-07-25T21:36:07.580Z,26.71
2022-07-25T21:38:38.597Z,26.66
2022-07-25T21:41:09.495Z,26.69
2022-07-25T21:43:39.586Z,26.71
2022-07-25T21:46:09.710Z,26.73
2022-07-25T21:48:58.493Z,26.70
2022-07-25T21:51:38.186Z,26.65
2022-07-25T21:54:13.089Z,26.63
2022-07-25T21:56:43.257Z,26.57
2022-07-25T21:59:13.641Z,26.56
2022-07-25T22:01:44.379Z,26.56
2022-07-25T22:04:15.918Z,26.59
2022-07-25T22:06:45.818Z,26.56
2022-07-25T22:09:15.915Z,26.47
2022-07-25T22:11:46.929Z,26.43
2022-07-25T22:14:17.767Z,26.40
2022-07-25T22:16:47.996Z,26.45
2022-07-25T22:19:22.329Z,26.39
2022-07-25T22:21:52.935Z,26.29
2022-07-25T22:24:22.859Z,26.20
2022-07-25T22:26:52.751Z,26.30
2022-07-25T22:29:22.745Z,26.33
2022-07-25T22:31:52.932Z,26.26
2022-07-25T22:34:24.409Z,26.28
2022-07-25T22:36:54.434Z,26.32
2022-07-25T22:39:24.909Z,26.16
2022-07-25T22:41:54.827Z,26.33
2022-07-25T22:44:24.963Z,26.32
2022-07-25T22:46:54.823Z,26.14
2022-07-25T22:49:26.316Z,25.81
2022-07-25T22:51:56.256Z,25.75
2022-07-25T22:54:26.791Z,25.55
2022-07-25T22:56:56.714Z,25.65
2022-07-25T22:59:26.889Z,25.68
2022-07-25T23:01:56.849Z,25.68
2022-07-25T23:04:28.237Z,25.55
2022-07-25T23:06:59.055Z,25.52
2022-07-25T23:09:36.055Z,25.51
2022-07-25T23:12:07.511Z,25.58
2022-07-25T23:14:38.428Z,25.38
2022-07-25T23:17:21.027Z,25.40
2022-07-25T23:19:54.467Z,25.38
2022-07-25T23:22:26.783Z,25.45
2022-07-25T23:24:57.196Z,25.28
2022-07-25T23:27:27.939Z,25.16
2022-07-25T23:30:03.878Z,25.37
2022-07-25T23:32:33.921Z,25.43
2022-07-25T23:35:06.033Z,25.24
2022-07-25T23:37:35.953Z,24.97
2022-07-25T23:40:07.391Z,24.97
2022-07-25T23:42:37.219Z,25.16
2022-07-25T23:45:08.230Z,25.03
2022-07-25T23:47:40.605Z,24.93
2022-07-25T23:50:12.646Z,24.91
2022-07-25T23:52:42.515Z,24.89
2022-07-25T23:55:12.386Z,24.98
2022-07-25T23:57:42.234Z,25.09
